sensor_id;sensor_type;location;lat;lon;timestamp;P1;durP1;ratioP1;P2;durP2;ratioP2
23498;SDS011;11926;48.120;11.562;2023-04-03T00:01:21;18.48;;;9.60;;
23498;SDS011;11926;48.120;11.562;2023-04-03T00:04:08;13.32;;;9.30;;
23498;SDS011;11926;48.120;11.562;2023-04-03T00:06:56;19.00;;;10.18;;
23498;SDS011;11926;48.120;11.562;2023-04-03T00:09:45;16.63;;;10.25;;
23498;SDS011;11926;48.120;11.562;2023-04-03T00:12:33;17.83;;;9.98;;
23498;SDS011;11926;48.120;11.562;2023-04-03T00:15:20;13.88;;;8.52;;
23498;SDS011;11926;48.120;11.562;2023-04-03T00:18:08;13.05;;;9.15;;
23498;SDS011;11926;48.120;11.562;2023-04-03T00:20:55;14.35;;;8.48;;
23498;SDS011;11926;48.120;11.562;2023-04-03T00:23:43;14.40;;;9.57;;
23498;SDS011;11926;48.120;11.562;2023-04-03T00:26:34;15.68;;;9.68;;
23498;SDS011;11926;48.120;11.562;2023-04-03T00:29:21;15.50;;;9.35;;
23498;SDS011;11926;48.120;11.562;2023-04-03T00:32:09;13.13;;;9.20;;
23498;SDS011;11926;48.120;11.562;2023-04-03T00:34:56;16.10;;;9.60;;
23498;SDS011;11926;48.120;11.562;2023-04-03T00:37:44;13.05;;;8.35;;
23498;SDS011;11926;48.120;11.562;2023-04-03T00:40:33;15.05;;;10.00;;
23498;SDS011;11926;48.120;11.562;2023-04-03T00:43:25;13.88;;;7.82;;
23498;SDS011;11926;48.120;11.562;2023-04-03T00:46:12;14.30;;;8.55;;
23498;SDS011;11926;48.120;11.562;2023-04-03T00:49:00;11.95;;;7.53;;
23498;SDS011;11926;48.120;11.562;2023-04-03T00:51:47;10.88;;;7.18;;
23498;SDS011;11926;48.120;11.562;2023-04-03T00:54:36;12.38;;;7.20;;
23498;SDS011;11926;48.120;11.562;2023-04-03T00:57:26;16.27;;;7.88;;
23498;SDS011;11926;48.120;11.562;2023-04-03T01:00:16;10.43;;;7.40;;
23498;SDS011;11926;48.120;11.562;2023-04-03T01:03:06;13.32;;;7.60;;
23498;SDS011;11926;48.120;11.562;2023-04-03T01:05:56;12.73;;;6.35;;
23498;SDS011;11926;48.120;11.562;2023-04-03T01:08:44;11.32;;;7.05;;
23498;SDS011;11926;48.120;11.562;2023-04-03T01:11:34;12.98;;;8.18;;
23498;SDS011;11926;48.120;11.562;2023-04-03T01:14:22;13.50;;;8.75;;
23498;SDS011;11926;48.120;11.562;2023-04-03T01:20:15;13.57;;;8.45;;
23498;SDS011;11926;48.120;11.562;2023-04-03T01:26:19;13.43;;;9.45;;
23498;SDS011;11926;48.120;11.562;2023-04-03T01:29:07;15.15;;;8.05;;
23498;SDS011;11926;48.120;11.562;2023-04-03T01:31:57;12.35;;;7.65;;
23498;SDS011;11926;48.120;11.562;2023-04-03T01:34:46;12.73;;;8.23;;
23498;SDS011;11926;48.120;11.562;2023-04-03T01:37:33;13.20;;;9.00;;
23498;SDS011;11926;48.120;11.562;2023-04-03T01:40:21;13.38;;;7.88;;
23498;SDS011;11926;48.120;11.562;2023-04-03T01:43:09;15.93;;;9.18;;
23498;SDS011;11926;48.120;11.562;2023-04-03T01:45:57;14.25;;;8.80;;
23498;SDS011;11926;48.120;11.562;2023-04-03T01:48:46;14.40;;;8.45;;
23498;SDS011;11926;48.120;11.562;2023-04-03T01:51:36;12.60;;;7.80;;
23498;SDS011;11926;48.120;11.562;2023-04-03T01:54:23;14.60;;;8.85;;
23498;SDS011;11926;48.120;11.562;2023-04-03T01:57:11;11.70;;;8.02;;
23498;SDS011;11926;48.120;11.562;2023-04-03T02:00:01;11.98;;;7.50;;
23498;SDS011;11926;48.120;11.562;2023-04-03T02:02:57;11.13;;;7.68;;
23498;SDS011;11926;48.120;11.562;2023-04-03T02:05:47;12.35;;;7.50;;
23498;SDS011;11926;48.120;11.562;2023-04-03T02:08:36;11.02;;;7.38;;
23498;SDS011;11926;48.120;11.562;2023-04-03T02:11:24;10.05;;;6.88;;
23498;SDS011;11926;48.120;11.562;2023-04-03T02:14:11;10.65;;;7.93;;
23498;SDS011;11926;48.120;11.562;2023-04-03T02:16:59;10.57;;;6.45;;
23498;SDS011;11926;48.120;11.562;2023-04-03T02:19:50;13.30;;;7.88;;
23498;SDS011;11926;48.120;11.562;2023-04-03T02:22:39;10.23;;;6.03;;
23498;SDS011;11926;48.120;11.562;2023-04-03T02:25:27;10.05;;;6.10;;
23498;SDS011;11926;48.120;11.562;2023-04-03T02:28:17;10.13;;;6.40;;
23498;SDS011;11926;48.120;11.562;2023-04-03T02:31:07;8.30;;;6.07;;
23498;SDS011;11926;48.120;11.562;2023-04-03T02:33:58;9.93;;;6.40;;
23498;SDS011;11926;48.120;11.562;2023-04-03T02:36:46;9.65;;;6.32;;
23498;SDS011;11926;48.120;11.562;2023-04-03T02:39:36;12.05;;;6.50;;
23498;SDS011;11926;48.120;11.562;2023-04-03T02:42:25;9.77;;;6.18;;
23498;SDS011;11926;48.120;11.562;2023-04-03T02:45:12;16.83;;;7.47;;
23498;SDS011;11926;48.120;11.562;2023-04-03T02:48:00;10.18;;;6.57;;
23498;SDS011;11926;48.120;11.562;2023-04-03T02:50:47;11.63;;;7.05;;
23498;SDS011;11926;48.120;11.562;2023-04-03T02:53:35;11.80;;;7.40;;
23498;SDS011;11926;48.120;11.562;2023-04-03T02:56:30;11.00;;;6.13;;
23498;SDS011;11926;48.120;11.562;2023-04-03T02:59:18;8.52;;;5.63;;
23498;SDS011;11926;48.120;11.562;2023-04-03T03:02:07;8.85;;;5.55;;
23498;SDS011;11926;48.120;11.562;2023-04-03T03:04:55;7.45;;;5.05;;
23498;SDS011;11926;48.120;11.562;2023-04-03T03:07:43;9.18;;;5.78;;
23498;SDS011;11926;48.120;11.562;2023-04-03T03:10:30;8.98;;;6.03;;
23498;SDS011;11926;48.120;11.562;2023-04-03T03:13:20;8.75;;;5.05;;
23498;SDS011;11926;48.120;11.562;2023-04-03T03:16:08;8.93;;;5.68;;
23498;SDS011;11926;48.120;11.562;2023-04-03T03:18:57;7.88;;;5.00;;
23498;SDS011;11926;48.120;11.562;2023-04-03T03:21:46;8.40;;;5.35;;
23498;SDS011;11926;48.120;11.562;2023-04-03T03:24:33;8.15;;;4.60;;
23498;SDS011;11926;48.120;11.562;2023-04-03T03:27:21;8.38;;;5.00;;
23498;SDS011;11926;48.120;11.562;2023-04-03T03:30:10;6.90;;;4.85;;
23498;SDS011;11926;48.120;11.562;2023-04-03T03:32:58;10.05;;;5.30;;
23498;SDS011;11926;48.120;11.562;2023-04-03T03:35:47;8.43;;;4.85;;
23498;SDS011;11926;48.120;11.562;2023-04-03T03:38:35;7.75;;;4.55;;
23498;SDS011;11926;48.120;11.562;2023-04-03T03:41:23;7.78;;;4.50;;
23498;SDS011;11926;48.120;11.562;2023-04-03T03:44:12;9.85;;;5.50;;
23498;SDS011;11926;48.120;11.562;2023-04-03T03:47:02;7.75;;;4.57;;
23498;SDS011;11926;48.120;11.562;2023-04-03T03:49:52;8.48;;;4.55;;
23498;SDS011;11926;48.120;11.562;2023-04-03T03:52:39;6.15;;;4.32;;
23498;SDS011;11926;48.120;11.562;2023-04-03T03:55:26;7.10;;;4.03;;
23498;SDS011;11926;48.120;11.562;2023-04-03T03:58:16;6.38;;;4.10;;
23498;SDS011;11926;48.120;11.562;2023-04-03T04:01:03;7.03;;;4.50;;
23498;SDS011;11926;48.120;11.562;2023-04-03T04:04:00;7.32;;;4.00;;
23498;SDS011;11926;48.120;11.562;2023-04-03T04:06:49;8.43;;;4.10;;
23498;SDS011;11926;48.120;11.562;2023-04-03T04:09:38;8.00;;;4.22;;
23498;SDS011;11926;48.120;11.562;2023-04-03T04:12:26;6.95;;;4.47;;
23498;SDS011;11926;48.120;11.562;2023-04-03T04:15:15;6.45;;;3.95;;
23498;SDS011;11926;48.120;11.562;2023-04-03T04:18:02;5.88;;;3.67;;
23498;SDS011;11926;48.120;11.562;2023-04-03T04:20:52;6.07;;;3.75;;
23498;SDS011;11926;48.120;11.562;2023-04-03T04:23:40;6.15;;;3.95;;
23498;SDS011;11926;48.120;11.562;2023-04-03T04:26:28;5.95;;;3.75;;
23498;SDS011;11926;48.120;11.562;2023-04-03T04:29:17;9.23;;;4.13;;
23498;SDS011;11926;48.120;11.562;2023-04-03T04:32:07;6.55;;;4.03;;
23498;SDS011;11926;48.120;11.562;2023-04-03T04:34:56;5.90;;;3.72;;
23498;SDS011;11926;48.120;11.562;2023-04-03T04:37:46;9.23;;;4.30;;
23498;SDS011;11926;48.120;11.562;2023-04-03T04:40:34;6.07;;;4.15;;
23498;SDS011;11926;48.120;11.562;2023-04-03T04:43:25;8.88;;;4.40;;
23498;SDS011;11926;48.120;11.562;2023-04-03T04:46:13;6.95;;;4.10;;
23498;SDS011;11926;48.120;11.562;2023-04-03T04:51:53;6.25;;;3.83;;
23498;SDS011;11926;48.120;11.562;2023-04-03T04:54:48;6.05;;;3.72;;
23498;SDS011;11926;48.120;11.562;2023-04-03T04:57:36;6.15;;;4.30;;
23498;SDS011;11926;48.120;11.562;2023-04-03T05:00:25;6.93;;;4.40;;
23498;SDS011;11926;48.120;11.562;2023-04-03T05:03:14;8.57;;;4.13;;
23498;SDS011;11926;48.120;11.562;2023-04-03T05:06:02;6.90;;;3.80;;
23498;SDS011;11926;48.120;11.562;2023-04-03T05:08:52;6.25;;;3.97;;
23498;SDS011;11926;48.120;11.562;2023-04-03T05:11:41;5.60;;;3.55;;
23498;SDS011;11926;48.120;11.562;2023-04-03T05:14:31;6.90;;;4.10;;
23498;SDS011;11926;48.120;11.562;2023-04-03T05:17:23;8.27;;;4.15;;
23498;SDS011;11926;48.120;11.562;2023-04-03T05:20:14;8.10;;;4.10;;
23498;SDS011;11926;48.120;11.562;2023-04-03T05:23:03;5.93;;;3.88;;
23498;SDS011;11926;48.120;11.562;2023-04-03T05:25:53;9.45;;;4.45;;
23498;SDS011;11926;48.120;11.562;2023-04-03T05:28:43;7.28;;;4.70;;
23498;SDS011;11926;48.120;11.562;2023-04-03T05:31:30;8.10;;;4.40;;
23498;SDS011;11926;48.120;11.562;2023-04-03T05:34:17;6.18;;;4.07;;
23498;SDS011;11926;48.120;11.562;2023-04-03T05:37:07;6.68;;;4.03;;
23498;SDS011;11926;48.120;11.562;2023-04-03T05:39:56;6.68;;;3.72;;
23498;SDS011;11926;48.120;11.562;2023-04-03T05:42:45;6.82;;;4.10;;
23498;SDS011;11926;48.120;11.562;2023-04-03T05:45:35;7.78;;;4.53;;
23498;SDS011;11926;48.120;11.562;2023-04-03T05:48:22;6.93;;;3.78;;
23498;SDS011;11926;48.120;11.562;2023-04-03T05:51:13;7.68;;;4.30;;
23498;SDS011;11926;48.120;11.562;2023-04-03T05:54:06;6.38;;;3.92;;
23498;SDS011;11926;48.120;11.562;2023-04-03T05:56:59;7.78;;;3.83;;
23498;SDS011;11926;48.120;11.562;2023-04-03T05:59:47;6.78;;;4.10;;
23498;SDS011;11926;48.120;11.562;2023-04-03T06:02:37;6.70;;;4.57;;
23498;SDS011;11926;48.120;11.562;2023-04-03T06:05:27;8.43;;;4.25;;
23498;SDS011;11926;48.120;11.562;2023-04-03T06:08:15;8.02;;;4.53;;
23498;SDS011;11926;48.120;11.562;2023-04-03T06:11:02;7.30;;;4.28;;
23498;SDS011;11926;48.120;11.562;2023-04-03T06:13:49;8.35;;;4.03;;
23498;SDS011;11926;48.120;11.562;2023-04-03T06:16:36;7.20;;;4.15;;
23498;SDS011;11926;48.120;11.562;2023-04-03T06:19:26;9.10;;;4.45;;
23498;SDS011;11926;48.120;11.562;2023-04-03T06:22:15;8.60;;;4.57;;
23498;SDS011;11926;48.120;11.562;2023-04-03T06:25:04;6.90;;;3.95;;
23498;SDS011;11926;48.120;11.562;2023-04-03T06:27:52;9.05;;;4.00;;
23498;SDS011;11926;48.120;11.562;2023-04-03T06:30:41;8.93;;;4.35;;
23498;SDS011;11926;48.120;11.562;2023-04-03T06:33:29;7.32;;;3.80;;
23498;SDS011;11926;48.120;11.562;2023-04-03T06:36:18;7.55;;;4.53;;
23498;SDS011;11926;48.120;11.562;2023-04-03T06:39:08;7.68;;;4.15;;
23498;SDS011;11926;48.120;11.562;2023-04-03T06:41:59;8.02;;;4.47;;
23498;SDS011;11926;48.120;11.562;2023-04-03T06:44:55;6.40;;;4.30;;
23498;SDS011;11926;48.120;11.562;2023-04-03T06:47:43;8.38;;;4.13;;
23498;SDS011;11926;48.120;11.562;2023-04-03T06:50:30;8.32;;;4.15;;
23498;SDS011;11926;48.120;11.562;2023-04-03T06:53:19;7.68;;;4.35;;
23498;SDS011;11926;48.120;11.562;2023-04-03T06:56:07;8.50;;;4.07;;
23498;SDS011;11926;48.120;11.562;2023-04-03T06:58:55;8.85;;;4.10;;
23498;SDS011;11926;48.120;11.562;2023-04-03T07:01:44;8.05;;;3.97;;
23498;SDS011;11926;48.120;11.562;2023-04-03T07:04:32;8.48;;;4.22;;
23498;SDS011;11926;48.120;11.562;2023-04-03T07:07:22;7.55;;;3.95;;
23498;SDS011;11926;48.120;11.562;2023-04-03T07:10:10;8.48;;;4.40;;
23498;SDS011;11926;48.120;11.562;2023-04-03T07:12:59;7.50;;;3.92;;
23498;SDS011;11926;48.120;11.562;2023-04-03T07:15:47;7.00;;;4.30;;
23498;SDS011;11926;48.120;11.562;2023-04-03T07:18:38;6.78;;;4.15;;
23498;SDS011;11926;48.120;11.562;2023-04-03T07:21:25;6.13;;;4.00;;
23498;SDS011;11926;48.120;11.562;2023-04-03T07:24:13;8.05;;;4.72;;
23498;SDS011;11926;48.120;11.562;2023-04-03T07:27:02;9.70;;;4.63;;
23498;SDS011;11926;48.120;11.562;2023-04-03T07:29:50;7.00;;;4.30;;
23498;SDS011;11926;48.120;11.562;2023-04-03T07:32:40;6.18;;;4.20;;
23498;SDS011;11926;48.120;11.562;2023-04-03T07:35:28;9.73;;;4.25;;
23498;SDS011;11926;48.120;11.562;2023-04-03T07:38:16;7.22;;;4.50;;
23498;SDS011;11926;48.120;11.562;2023-04-03T07:41:04;9.02;;;4.55;;
23498;SDS011;11926;48.120;11.562;2023-04-03T07:43:53;8.38;;;4.40;;
23498;SDS011;11926;48.120;11.562;2023-04-03T07:46:42;7.25;;;4.20;;
23498;SDS011;11926;48.120;11.562;2023-04-03T07:49:30;8.55;;;4.35;;
23498;SDS011;11926;48.120;11.562;2023-04-03T07:52:18;8.30;;;3.97;;
23498;SDS011;11926;48.120;11.562;2023-04-03T07:55:06;7.18;;;4.53;;
23498;SDS011;11926;48.120;11.562;2023-04-03T07:57:54;10.75;;;4.00;;
23498;SDS011;11926;48.120;11.562;2023-04-03T08:00:43;7.95;;;4.45;;
23498;SDS011;11926;48.120;11.562;2023-04-03T08:03:34;6.43;;;3.90;;
23498;SDS011;11926;48.120;11.562;2023-04-03T08:06:23;9.63;;;4.90;;
23498;SDS011;11926;48.120;11.562;2023-04-03T08:09:30;8.60;;;4.82;;
23498;SDS011;11926;48.120;11.562;2023-04-03T08:12:17;7.82;;;4.47;;
23498;SDS011;11926;48.120;11.562;2023-04-03T08:15:05;8.65;;;5.63;;
23498;SDS011;11926;48.120;11.562;2023-04-03T08:17:56;7.85;;;4.80;;
23498;SDS011;11926;48.120;11.562;2023-04-03T08:20:44;6.95;;;4.80;;
23498;SDS011;11926;48.120;11.562;2023-04-03T08:23:34;8.77;;;5.45;;
23498;SDS011;11926;48.120;11.562;2023-04-03T08:26:22;10.18;;;5.65;;
23498;SDS011;11926;48.120;11.562;2023-04-03T08:29:12;10.38;;;6.07;;
23498;SDS011;11926;48.120;11.562;2023-04-03T08:32:00;8.52;;;5.40;;
23498;SDS011;11926;48.120;11.562;2023-04-03T08:34:49;9.40;;;5.78;;
23498;SDS011;11926;48.120;11.562;2023-04-03T08:37:37;8.55;;;5.47;;
23498;SDS011;11926;48.120;11.562;2023-04-03T08:40:26;7.20;;;5.30;;
23498;SDS011;11926;48.120;11.562;2023-04-03T08:43:19;9.50;;;5.20;;
23498;SDS011;11926;48.120;11.562;2023-04-03T08:46:16;7.75;;;5.05;;
23498;SDS011;11926;48.120;11.562;2023-04-03T08:49:10;8.88;;;5.82;;
23498;SDS011;11926;48.120;11.562;2023-04-03T08:52:11;10.15;;;5.82;;
23498;SDS011;11926;48.120;11.562;2023-04-03T08:55:02;11.52;;;5.80;;
23498;SDS011;11926;48.120;11.562;2023-04-03T08:57:57;10.63;;;5.57;;
23498;SDS011;11926;48.120;11.562;2023-04-03T09:00:48;10.73;;;4.97;;
23498;SDS011;11926;48.120;11.562;2023-04-03T09:03:38;10.57;;;5.40;;
23498;SDS011;11926;48.120;11.562;2023-04-03T09:06:29;9.70;;;5.38;;
23498;SDS011;11926;48.120;11.562;2023-04-03T09:09:24;10.32;;;5.50;;
23498;SDS011;11926;48.120;11.562;2023-04-03T09:12:21;9.52;;;4.95;;
23498;SDS011;11926;48.120;11.562;2023-04-03T09:15:15;10.68;;;5.53;;
23498;SDS011;11926;48.120;11.562;2023-04-03T09:18:24;9.18;;;5.38;;
23498;SDS011;11926;48.120;11.562;2023-04-03T09:21:19;6.97;;;4.55;;
23498;SDS011;11926;48.120;11.562;2023-04-03T09:24:12;8.25;;;4.95;;
23498;SDS011;11926;48.120;11.562;2023-04-03T09:27:05;10.30;;;5.15;;
23498;SDS011;11926;48.120;11.562;2023-04-03T09:29:56;8.85;;;4.78;;
23498;SDS011;11926;48.120;11.562;2023-04-03T09:32:45;9.93;;;5.00;;
23498;SDS011;11926;48.120;11.562;2023-04-03T09:35:35;8.70;;;4.88;;
23498;SDS011;11926;48.120;11.562;2023-04-03T09:38:33;7.55;;;4.70;;
23498;SDS011;11926;48.120;11.562;2023-04-03T09:41:21;9.82;;;4.30;;
23498;SDS011;11926;48.120;11.562;2023-04-03T09:47:17;7.03;;;3.80;;
23498;SDS011;11926;48.120;11.562;2023-04-03T09:53:05;7.47;;;4.55;;
23498;SDS011;11926;48.120;11.562;2023-04-03T09:56:22;9.07;;;4.63;;
23498;SDS011;11926;48.120;11.562;2023-04-03T09:59:13;8.45;;;4.45;;
23498;SDS011;11926;48.120;11.562;2023-04-03T10:02:04;7.00;;;4.50;;
23498;SDS011;11926;48.120;11.562;2023-04-03T10:08:25;5.35;;;3.72;;
23498;SDS011;11926;48.120;11.562;2023-04-03T10:11:15;6.63;;;3.58;;
23498;SDS011;11926;48.120;11.562;2023-04-03T10:14:04;6.70;;;3.55;;
23498;SDS011;11926;48.120;11.562;2023-04-03T10:17:09;8.13;;;4.30;;
23498;SDS011;11926;48.120;11.562;2023-04-03T10:20:08;6.07;;;4.20;;
23498;SDS011;11926;48.120;11.562;2023-04-03T10:23:15;8.70;;;4.05;;
23498;SDS011;11926;48.120;11.562;2023-04-03T10:26:08;6.22;;;4.43;;
23498;SDS011;11926;48.120;11.562;2023-04-03T10:29:05;9.80;;;4.00;;
23498;SDS011;11926;48.120;11.562;2023-04-03T10:32:06;5.93;;;4.20;;
23498;SDS011;11926;48.120;11.562;2023-04-03T10:35:08;7.97;;;4.68;;
23498;SDS011;11926;48.120;11.562;2023-04-03T10:38:04;8.90;;;5.05;;
23498;SDS011;11926;48.120;11.562;2023-04-03T10:41:02;7.65;;;3.92;;
23498;SDS011;11926;48.120;11.562;2023-04-03T10:43:59;8.63;;;4.30;;
23498;SDS011;11926;48.120;11.562;2023-04-03T10:47:00;8.65;;;3.70;;
23498;SDS011;11926;48.120;11.562;2023-04-03T10:49:55;9.17;;;4.03;;
23498;SDS011;11926;48.120;11.562;2023-04-03T10:52:51;7.53;;;3.25;;
23498;SDS011;11926;48.120;11.562;2023-04-03T10:55:50;7.10;;;3.72;;
23498;SDS011;11926;48.120;11.562;2023-04-03T10:58:43;5.82;;;3.90;;
23498;SDS011;11926;48.120;11.562;2023-04-03T11:01:32;8.25;;;4.15;;
23498;SDS011;11926;48.120;11.562;2023-04-03T11:04:23;8.45;;;4.32;;
23498;SDS011;11926;48.120;11.562;2023-04-03T11:07:16;7.65;;;4.00;;
23498;SDS011;11926;48.120;11.562;2023-04-03T11:10:09;6.38;;;4.45;;
23498;SDS011;11926;48.120;11.562;2023-04-03T11:13:02;7.13;;;4.40;;
23498;SDS011;11926;48.120;11.562;2023-04-03T11:15:58;9.00;;;4.30;;
23498;SDS011;11926;48.120;11.562;2023-04-03T11:18:47;6.57;;;3.95;;
23498;SDS011;11926;48.120;11.562;2023-04-03T11:21:42;7.05;;;4.13;;
23498;SDS011;11926;48.120;11.562;2023-04-03T11:24:40;6.90;;;3.97;;
23498;SDS011;11926;48.120;11.562;2023-04-03T11:27:33;8.38;;;3.72;;
23498;SDS011;11926;48.120;11.562;2023-04-03T11:30:28;6.72;;;3.17;;
23498;SDS011;11926;48.120;11.562;2023-04-03T11:33:23;6.72;;;3.92;;
23498;SDS011;11926;48.120;11.562;2023-04-03T11:36:19;6.20;;;3.30;;
23498;SDS011;11926;48.120;11.562;2023-04-03T11:39:22;12.10;;;3.45;;
23498;SDS011;11926;48.120;11.562;2023-04-03T11:42:16;7.00;;;3.25;;
23498;SDS011;11926;48.120;11.562;2023-04-03T11:45:17;6.43;;;2.53;;
23498;SDS011;11926;48.120;11.562;2023-04-03T11:57:50;5.30;;;2.30;;
23498;SDS011;11926;48.120;11.562;2023-04-03T12:00:53;6.25;;;2.20;;
23498;SDS011;11926;48.120;11.562;2023-04-03T12:07:00;7.00;;;1.80;;
23498;SDS011;11926;48.120;11.562;2023-04-03T12:10:00;5.35;;;1.92;;
23498;SDS011;11926;48.120;11.562;2023-04-03T12:12:58;5.15;;;2.03;;
23498;SDS011;11926;48.120;11.562;2023-04-03T12:15:51;4.47;;;2.10;;
23498;SDS011;11926;48.120;11.562;2023-04-03T12:18:41;4.63;;;2.10;;
23498;SDS011;11926;48.120;11.562;2023-04-03T12:27:38;4.88;;;2.50;;
23498;SDS011;11926;48.120;11.562;2023-04-03T12:30:30;5.20;;;1.90;;
23498;SDS011;11926;48.120;11.562;2023-04-03T12:33:20;3.95;;;1.80;;
23498;SDS011;11926;48.120;11.562;2023-04-03T12:36:18;6.43;;;1.90;;
23498;SDS011;11926;48.120;11.562;2023-04-03T12:39:16;5.75;;;2.17;;
23498;SDS011;11926;48.120;11.562;2023-04-03T12:42:18;4.47;;;2.05;;
23498;SDS011;11926;48.120;11.562;2023-04-03T12:45:21;6.20;;;1.92;;
23498;SDS011;11926;48.120;11.562;2023-04-03T12:48:14;5.85;;;1.95;;
23498;SDS011;11926;48.120;11.562;2023-04-03T12:53:52;3.80;;;1.83;;
23498;SDS011;11926;48.120;11.562;2023-04-03T12:56:47;6.10;;;2.40;;
23498;SDS011;11926;48.120;11.562;2023-04-03T12:59:36;5.00;;;2.20;;
23498;SDS011;11926;48.120;11.562;2023-04-03T13:02:26;4.57;;;1.88;;
23498;SDS011;11926;48.120;11.562;2023-04-03T13:05:17;6.68;;;1.90;;
23498;SDS011;11926;48.120;11.562;2023-04-03T13:08:08;8.00;;;1.95;;
23498;SDS011;11926;48.120;11.562;2023-04-03T13:11:01;3.22;;;1.60;;
23498;SDS011;11926;48.120;11.562;2023-04-03T13:13:54;3.47;;;1.80;;
23498;SDS011;11926;48.120;11.562;2023-04-03T13:16:52;4.97;;;2.00;;
23498;SDS011;11926;48.120;11.562;2023-04-03T13:19:41;4.50;;;2.00;;
23498;SDS011;11926;48.120;11.562;2023-04-03T13:22:33;5.72;;;2.05;;
23498;SDS011;11926;48.120;11.562;2023-04-03T13:25:28;3.40;;;1.77;;
23498;SDS011;11926;48.120;11.562;2023-04-03T13:28:19;3.65;;;1.73;;
23498;SDS011;11926;48.120;11.562;2023-04-03T13:31:17;5.07;;;1.77;;
23498;SDS011;11926;48.120;11.562;2023-04-03T13:34:11;4.40;;;1.75;;
23498;SDS011;11926;48.120;11.562;2023-04-03T13:37:04;3.80;;;2.10;;
23498;SDS011;11926;48.120;11.562;2023-04-03T13:40:00;3.13;;;1.52;;
23498;SDS011;11926;48.120;11.562;2023-04-03T13:42:59;3.50;;;1.60;;
23498;SDS011;11926;48.120;11.562;2023-04-03T13:45:58;5.47;;;1.75;;
23498;SDS011;11926;48.120;11.562;2023-04-03T13:48:47;6.03;;;2.15;;
23498;SDS011;11926;48.120;11.562;2023-04-03T13:51:37;4.22;;;1.90;;
23498;SDS011;11926;48.120;11.562;2023-04-03T13:54:29;3.75;;;1.60;;
23498;SDS011;11926;48.120;11.562;2023-04-03T13:57:18;3.40;;;1.48;;
23498;SDS011;11926;48.120;11.562;2023-04-03T14:08:50;2.63;;;1.38;;
23498;SDS011;11926;48.120;11.562;2023-04-03T14:11:39;3.67;;;1.63;;
23498;SDS011;11926;48.120;11.562;2023-04-03T14:14:30;3.78;;;1.60;;
23498;SDS011;11926;48.120;11.562;2023-04-03T14:17:19;5.10;;;1.52;;
23498;SDS011;11926;48.120;11.562;2023-04-03T14:20:13;3.17;;;1.42;;
23498;SDS011;11926;48.120;11.562;2023-04-03T14:23:01;2.80;;;1.38;;
23498;SDS011;11926;48.120;11.562;2023-04-03T14:25:49;4.00;;;1.52;;
23498;SDS011;11926;48.120;11.562;2023-04-03T14:28:37;3.05;;;1.45;;
23498;SDS011;11926;48.120;11.562;2023-04-03T14:31:31;3.90;;;1.77;;
23498;SDS011;11926;48.120;11.562;2023-04-03T14:34:19;3.15;;;1.48;;
23498;SDS011;11926;48.120;11.562;2023-04-03T14:37:09;4.72;;;1.80;;
23498;SDS011;11926;48.120;11.562;2023-04-03T14:39:58;3.20;;;1.50;;
23498;SDS011;11926;48.120;11.562;2023-04-03T14:42:47;4.28;;;1.60;;
23498;SDS011;11926;48.120;11.562;2023-04-03T14:45:34;2.90;;;1.55;;
23498;SDS011;11926;48.120;11.562;2023-04-03T14:48:26;3.63;;;1.40;;
23498;SDS011;11926;48.120;11.562;2023-04-03T14:51:14;3.72;;;1.52;;
23498;SDS011;11926;48.120;11.562;2023-04-03T14:54:03;1.90;;;1.25;;
23498;SDS011;11926;48.120;11.562;2023-04-03T14:56:54;4.55;;;1.58;;
23498;SDS011;11926;48.120;11.562;2023-04-03T14:59:44;3.08;;;1.48;;
23498;SDS011;11926;48.120;11.562;2023-04-03T15:02:32;3.30;;;1.55;;
23498;SDS011;11926;48.120;11.562;2023-04-03T15:05:23;3.08;;;1.50;;
23498;SDS011;11926;48.120;11.562;2023-04-03T15:08:16;3.47;;;1.60;;
23498;SDS011;11926;48.120;11.562;2023-04-03T15:11:06;5.38;;;1.67;;
23498;SDS011;11926;48.120;11.562;2023-04-03T15:13:54;5.00;;;1.50;;
23498;SDS011;11926;48.120;11.562;2023-04-03T15:16:42;2.90;;;1.30;;
23498;SDS011;11926;48.120;11.562;2023-04-03T15:19:31;4.05;;;1.73;;
23498;SDS011;11926;48.120;11.562;2023-04-03T15:22:25;3.20;;;1.40;;
23498;SDS011;11926;48.120;11.562;2023-04-03T15:25:12;2.35;;;1.27;;
23498;SDS011;11926;48.120;11.562;2023-04-03T15:28:01;2.83;;;1.45;;
23498;SDS011;11926;48.120;11.562;2023-04-03T15:30:49;4.13;;;1.60;;
23498;SDS011;11926;48.120;11.562;2023-04-03T15:33:38;4.50;;;1.52;;
23498;SDS011;11926;48.120;11.562;2023-04-03T15:36:26;3.33;;;1.30;;
23498;SDS011;11926;48.120;11.562;2023-04-03T15:39:20;3.35;;;1.60;;
23498;SDS011;11926;48.120;11.562;2023-04-03T15:42:09;5.72;;;1.30;;
23498;SDS011;11926;48.120;11.562;2023-04-03T15:44:58;4.13;;;1.45;;
23498;SDS011;11926;48.120;11.562;2023-04-03T15:47:46;2.42;;;1.27;;
23498;SDS011;11926;48.120;11.562;2023-04-03T15:50:35;2.72;;;1.40;;
23498;SDS011;11926;48.120;11.562;2023-04-03T15:53:23;3.35;;;1.15;;
23498;SDS011;11926;48.120;11.562;2023-04-03T15:56:12;2.63;;;1.30;;
23498;SDS011;11926;48.120;11.562;2023-04-03T15:59:00;4.13;;;1.35;;
23498;SDS011;11926;48.120;11.562;2023-04-03T16:01:49;2.92;;;1.50;;
23498;SDS011;11926;48.120;11.562;2023-04-03T16:04:38;3.65;;;1.50;;
23498;SDS011;11926;48.120;11.562;2023-04-03T16:07:29;3.35;;;1.50;;
23498;SDS011;11926;48.120;11.562;2023-04-03T16:10:20;3.13;;;1.42;;
23498;SDS011;11926;48.120;11.562;2023-04-03T16:13:09;5.10;;;1.60;;
23498;SDS011;11926;48.120;11.562;2023-04-03T16:15:57;4.18;;;1.70;;
23498;SDS011;11926;48.120;11.562;2023-04-03T16:18:45;5.88;;;1.67;;
23498;SDS011;11926;48.120;11.562;2023-04-03T16:21:33;4.53;;;1.80;;
23498;SDS011;11926;48.120;11.562;2023-04-03T16:24:21;3.50;;;1.50;;
23498;SDS011;11926;48.120;11.562;2023-04-03T16:27:09;3.50;;;1.42;;
23498;SDS011;11926;48.120;11.562;2023-04-03T16:29:58;5.07;;;1.40;;
23498;SDS011;11926;48.120;11.562;2023-04-03T16:32:45;2.97;;;1.38;;
23498;SDS011;11926;48.120;11.562;2023-04-03T16:35:33;3.28;;;1.55;;
23498;SDS011;11926;48.120;11.562;2023-04-03T16:38:21;3.85;;;1.42;;
23498;SDS011;11926;48.120;11.562;2023-04-03T16:41:09;3.15;;;1.25;;
23498;SDS011;11926;48.120;11.562;2023-04-03T16:43:57;3.38;;;1.40;;
23498;SDS011;11926;48.120;11.562;2023-04-03T16:46:46;3.42;;;1.40;;
23498;SDS011;11926;48.120;11.562;2023-04-03T16:49:33;2.88;;;1.40;;
23498;SDS011;11926;48.120;11.562;2023-04-03T16:52:22;3.97;;;1.75;;
23498;SDS011;11926;48.120;11.562;2023-04-03T16:55:09;5.88;;;1.70;;
23498;SDS011;11926;48.120;11.562;2023-04-03T16:57:56;3.80;;;1.30;;
23498;SDS011;11926;48.120;11.562;2023-04-03T17:00:44;5.07;;;1.38;;
23498;SDS011;11926;48.120;11.562;2023-04-03T17:03:34;6.50;;;1.50;;
23498;SDS011;11926;48.120;11.562;2023-04-03T17:06:22;4.72;;;1.42;;
23498;SDS011;11926;48.120;11.562;2023-04-03T17:09:10;4.32;;;1.60;;
23498;SDS011;11926;48.120;11.562;2023-04-03T17:11:58;4.25;;;1.58;;
23498;SDS011;11926;48.120;11.562;2023-04-03T17:14:46;5.88;;;1.65;;
23498;SDS011;11926;48.120;11.562;2023-04-03T17:17:33;3.83;;;1.40;;
23498;SDS011;11926;48.120;11.562;2023-04-03T17:20:22;3.45;;;1.40;;
23498;SDS011;11926;48.120;11.562;2023-04-03T17:23:10;3.50;;;1.58;;
23498;SDS011;11926;48.120;11.562;2023-04-03T17:25:58;4.03;;;1.55;;
23498;SDS011;11926;48.120;11.562;2023-04-03T17:28:45;2.70;;;1.60;;
23498;SDS011;11926;48.120;11.562;2023-04-03T17:31:33;3.25;;;1.30;;
23498;SDS011;11926;48.120;11.562;2023-04-03T17:34:21;3.72;;;1.52;;
23498;SDS011;11926;48.120;11.562;2023-04-03T17:37:11;3.83;;;1.65;;